Tiempo atmosférico en la estación meteorológica de A Lama, Pontevedra (395 m.)



Fecha
DESCASC
Temp. máxima en grados centígrados (hora)
DESCASC
Temp. mínima en grados centígrados (hora)
DESCASC
Temp. media en grados centígrados
DESCASC
Racha de viento máxima en m/sg (hora)
DESCASC
Velocidad máxima media en intervalos de 10 minutos(hora)
DESCASC
Precipitaciones diarias en mm
DESCASC
Precipitaciones de 00:00 a 06:00 en mm
DESCASC
Precipitaciones de 06:00 a 12:00 en mm
DESCASC
Precipitaciones de 12:00 a 18:00 en mm
DESCASC
Precipitaciones de 18:00 a 24:00 en mm
DESCASC
16-04-2019 18.8 (16:50) 4.1 (06:20) 11.4 8.33 (15:20) 4.17 (15:20) 0 0 0 0 0
15-04-2019 15.1 (02:00) 6.4 (23:59) 10.8 12.5 (09:40) 5.28 (09:50) 12.2 0 8.6 3.6 0
14-04-2019 18.7 (14:50) 12.4 (00:00) 15.6 8.33 (16:30) 4.72 (16:30) 0.2 0.2 0 0 0
13-04-2019 15.7 (12:00) 6.4 (00:00) 11 8.61 (14:30) 3.89 (14:30) 0.6 0 0 0.6 0
12-04-2019 17.2 (15:10) 0.9 (00:00) 9.1 6.67 (15:30) 4.17 (16:50) 0 0 0 0 0
11-04-2019 15.9 (18:10) 0.6 (00:00) 8.2 7.5 (18:30) 3.89 (18:30) 0 0 0 0 0
10-04-2019 14.1 (18:50) 5.1 (00:00) 9.6 7.5 (00:10) 4.17 (18:10) 11.4 11 0.2 0.2 0
09-04-2019 11.6 (14:40) 6.2 (00:00) 8.9 12.22 (11:10) 5.83 (21:50) 50 15.8 10.8 4.2 19.2
08-04-2019 12.7 (16:50) 6.5 (00:00) 9.6 11.11 (21:50) 5.56 (21:50) 6.6 1.8 1.8 0.8 2.2
07-04-2019 11 (23:00) 0.8 (00:00) 5.9 14.17 (23:10) 5.56 (23:59) 50.2 0.2 0 7.8 42.2
06-04-2019 10.4 (16:10) 4.1 (00:00) 7.2 13.61 (11:00) 6.11 (15:50) 36.6 7.4 18 7.2 4
05-04-2019 8.3 (17:10) 2.7 (00:00) 5.5 8.89 (18:20) 4.72 (18:20) 23.4 6 4.6 8 4.8
04-04-2019 8.1 (12:30) 0.2 (00:00) 4.2 10.56 (16:50) 4.72 (15:30) 28.8 0 0.2 8.8 19.8
03-04-2019 10.8 (18:10) 1.8 (07:50) 6.3 11.67 (16:20) 6.67 (18:10) 1.2 0 0.2 1 0
02-04-2019 16.2 (15:50) 2.1 (00:00) 9.2 8.89 (10:30) 5.28 (11:20) 0 0 0 0 0
01-04-2019 19.5 (13:30) 7.7 (00:00) 13.6 8.33 (05:20) 5.28 (00:20) 0.2 0 0 0.2 0
31-03-2019 19.9 (15:10) 6.4 (00:00) 13.1 9.17 (11:00) 5.83 (11:00) 0.2 0 0 0.2 0
30-03-2019 20.5 (14:30) 1.7 (00:00) 11.1 8.89 (15:00) 5 (16:10) 0 0 0 0 0
29-03-2019 21 (14:30) 4.7 (00:00) 12.8 8.33 (07:10) 5 (07:10) 0 0 0 0 0
28-03-2019 23.2 (16:00) 6.9 (00:00) 15.1 10.28 (03:30) 6.39 (03:40) 0 0 0 0 0
27-03-2019 23.5 (16:40) 6.4 (00:00) 15 11.39 (12:10) 5.83 (06:40) 0 0 0 0 0
26-03-2019 22.8 (17:10) 8.6 (00:00) 15.7 12.5 (02:30) 7.22 (00:30) 0 0 0 0 0
25-03-2019 22.6 (16:30) 12.6 (00:00) 17.6 13.06 (00:20) 7.78 (00:10) 0 0 0 0 0
24-03-2019 24.6 (16:00) 8.7 (00:00) 16.7 12.5 (23:40) 8.33 (23:59) 0 0 0 0 0
23-03-2019 21.2 (15:30) 4.8 (00:00) 13 8.61 (23:50) 5.28 (23:50) 0 0 0 0 0
22-03-2019 18.6 (14:40) 2 (00:00) 10.3 7.22 (17:10) 4.44 (17:10) 0 0 0 0 0
21-03-2019 18 (14:40) 4.6 (00:00) 11.3 10 (07:20) 6.11 (08:00) 0.2 0 0 0.2 0
20-03-2019 18.5 (15:30) 7.9 (00:00) 13.2 11.39 (07:40) 6.67 (08:00) 0 0 0 0 0
19-03-2019 16.1 (16:10) 6.2 (00:00) 11.2 13.33 (02:00) 7.22 (02:00) 0 0 0 0 0

Gráficas

Temp. máximas Temp. mínimas Temp. medias Precipitaciones Rachas de viento máximas Velocidades máximas media en intervalos de 10 minutos

Datos horarios

Fecha y hora oficial Temperatura (ºC) Velocidad del viento (km/h) Dirección del viento Racha (km/h) Dirección de racha Precipitación (mm) Presión (hPa) Tendencia (hPa) Humedad (%)
2019-04-17 23:00:00 10.4 2 Sudeste 10 Sudoeste 1.8 -- -- 95
2019-04-17 22:00:00 10.6 3 Sudeste 13 Sudeste 0 -- -- 94
2019-04-17 21:00:00 10.9 4 Sur 9 Sur 0 -- -- 94
2019-04-17 20:00:00 11 4 Sur 11 Sudoeste 0.6 -- -- 94
2019-04-17 19:00:00 11.2 5 Sudoeste 21 Sudoeste 2.2 -- -- 94
2019-04-17 18:00:00 11.6 7 Sur 19 Sur 1.8 -- -- 91
2019-04-17 17:00:00 12.6 4 Sudoeste 12 Sudoeste 0.4 -- -- 89
2019-04-17 16:00:00 12.9 4 Sur 15 Sudoeste 0.4 -- -- 87
2019-04-17 15:00:00 12.8 6 Sur 13 Sur 1 -- -- 87
2019-04-17 14:00:00 12.6 6 Sur 26 Sur 0.6 -- -- 84
2019-04-17 13:00:00 13.5 17 Sur 36 Sudeste 0 -- -- 70
2019-04-17 12:00:00 13.5 8 Sur 25 Sudoeste 0 -- -- 64
2019-04-17 11:00:00 12.8 8 Sur 27 Sudeste 0 -- -- 66
2019-04-17 10:00:00 11.8 13 Sudeste 31 Sur 0 -- -- 72
2019-04-17 09:00:00 11.7 17 Sur 32 Sur 0 -- -- 70
2019-04-17 08:00:00 11.3 9 Sudeste 20 Sudeste 0 -- -- 69
2019-04-17 07:00:00 11.1 5 Sur 17 Sudeste 0 -- -- 67
2019-04-17 06:00:00 10.9 8 Sudeste 20 Sudeste 0 -- -- 71
2019-04-17 05:00:00 9.2 5 Sur 12 Sur 0 -- -- 88
2019-04-17 04:00:00 9.4 0 Calma 9 Oeste 0 -- -- 87
2019-04-17 03:00:00 7.7 3 Sudeste 10 Oeste 0 -- -- 92
2019-04-17 02:00:00 7.6 0 Calma 6 Noroeste 0 -- -- 94
2019-04-17 01:00:00 8.1 0 Calma 9 Norte 0 -- -- 91
2019-04-17 00:00:00 9 5 Norte 10 Nordeste 0 -- -- 88
2019-04-16 23:00:00 10.4 2 Nordeste 7 Norte 0 -- -- 86
2019-04-16 22:00:00 12.2 0 Calma 9 Oeste 0 -- -- 80
2019-04-16 21:00:00 13.9 0 Calma 7 Noroeste 0 -- -- 71
2019-04-16 20:00:00 15.9 3 Sudoeste 10 Sudoeste 0 -- -- 62
2019-04-16 19:00:00 17 4 Oeste 20 Oeste 0 -- -- 52
2019-04-16 18:00:00 18.2 9 Sudoeste 28 Sudoeste 0 -- -- 42
2019-04-16 17:00:00 18.7 13 Sudoeste 30 Sudoeste 0 -- -- 39
2019-04-16 16:00:00 17.9 11 Sudoeste 30 Sudoeste 0 -- -- 47
2019-04-16 15:00:00 17.2 11 Sudoeste 28 Sudoeste 0 -- -- 51
2019-04-16 14:00:00 15.7 9 Sudoeste 23 Sudoeste 0 -- -- 55
2019-04-16 13:00:00 14.8 9 Sudoeste 24 Sudoeste 0 -- -- 59
2019-04-16 12:00:00 14.1 6 Sudoeste 18 Sudoeste 0 -- -- 62
2019-04-16 11:00:00 12.5 11 Sudoeste 18 Sudoeste 0 -- -- 69
2019-04-16 10:00:00 8.5 5 Norte 7 Noroeste 0 -- -- 93
2019-04-16 09:00:00 6.3 0 Calma 6 Nordeste 0 -- -- 97
2019-04-16 08:00:00 6.2 3 Nordeste 11 Este 0 -- -- 98
2019-04-16 07:00:00 4.3 3 Norte 10 Nordeste 0 -- -- 98
2019-04-16 06:00:00 4.7 0 Calma 7 Noroeste 0 -- -- 97
2019-04-16 05:00:00 5.6 3 Noroeste 5 Noroeste 0 -- -- 97
2019-04-16 04:00:00 7.4 0 Calma 4 Noroeste 0 -- -- 97
2019-04-16 03:00:00 7.4 0 Calma 3 Noroeste 0 -- -- 97
2019-04-16 02:00:00 7.1 0 Calma 4 Noroeste 0 -- -- 98
2019-04-16 01:00:00 6.7 2 Noroeste 4 Noroeste 0 -- -- 97
2019-04-16 00:00:00 6.4 0 Calma 4 Noroeste 0 -- -- 95
2019-04-15 23:00:00 7.4 0 Calma 3 Noroeste 0 -- -- 92
2019-04-15 22:00:00 9 0 Calma 12 Sudoeste 0 -- -- 87
2019-04-15 21:00:00 10.5 4 Sudoeste 18 Sudoeste 0 -- -- 84
2019-04-15 20:00:00 11.8 5 Sudoeste 17 Oeste 0 -- -- 77
2019-04-15 19:00:00 12.3 7 Oeste 27 Noroeste 0 -- -- 73
2019-04-15 18:00:00 12.8 14 Oeste 32 Oeste 0 -- -- 76
2019-04-15 17:00:00 11.4 13 Noroeste 24 Oeste 0 -- -- 86
2019-04-15 16:00:00 11.6 14 Oeste 31 Oeste 0 -- -- 81
2019-04-15 15:00:00 11.1 12 Oeste 29 Sudoeste 0.2 -- -- 94
2019-04-15 14:00:00 11.1 10 Sudoeste 24 Sudoeste 0.6 -- -- 96
2019-04-15 13:00:00 10.6 11 Sudoeste 30 Sudoeste 2.8 -- -- 96
2019-04-15 12:00:00 10.6 8 Sudoeste 22 Oeste 2.4 -- -- 97
2019-04-15 11:00:00 10.6 8 Sudoeste 35 Sudoeste 0 -- -- 96
2019-04-15 10:00:00 11.3 17 Sudoeste 45 Sudoeste 6 -- -- 95
2019-04-15 09:00:00 12.8 12 Sudoeste 30 Sudoeste 0 -- -- 94
2019-04-15 08:00:00 12.9 13 Sudoeste 33 Sudoeste 0 -- -- 94
2019-04-15 07:00:00 13.1 12 Sudoeste 36 Sudoeste 0.2 -- -- 95
2019-04-15 06:00:00 13.7 16 Sudoeste 33 Sudoeste 0 -- -- 95
2019-04-15 05:00:00 14.8 8 Sur 27 Sudoeste 0 -- -- 93
2019-04-15 04:00:00 14.9 12 Sur 25 Sudoeste 0 -- -- 93
2019-04-15 03:00:00 14.8 11 Sur 30 Sudoeste 0 -- -- 94
2019-04-15 02:00:00 15.1 7 Sur 18 Sudeste 0 -- -- 92
2019-04-15 01:00:00 14.9 6 Sur 14 Sur 0 -- -- 93
2019-04-15 00:00:00 14.8 6 Sur 12 Sudoeste 0 -- -- 94
2019-04-14 23:00:00 15 3 Sur 7 Sudoeste 0 -- -- 93
2019-04-14 22:00:00 15.2 4 Sudoeste 11 Sur 0 -- -- 92
2019-04-14 21:00:00 15.7 5 Sudoeste 15 Sur 0 -- -- 90
2019-04-14 20:00:00 16.1 7 Sudoeste 18 Sur 0 -- -- 90
2019-04-14 19:00:00 15.9 8 Sur 24 Sudoeste 0 -- -- 91
2019-04-14 18:00:00 17 11 Sudoeste 27 Sudoeste 0 -- -- 87
2019-04-14 17:00:00 17.8 9 Sur 30 Sudoeste 0 -- -- 79
2019-04-14 16:00:00 18.4 9 Sudoeste 25 Sudoeste 0 -- -- 79
2019-04-14 15:00:00 18.7 7 Sudoeste 23 Sudoeste 0 -- -- 77
2019-04-14 14:00:00 17.7 8 Sudoeste 21 Sudoeste 0 -- -- 83
2019-04-14 13:00:00 17 8 Sudoeste 18 Sudoeste 0 -- -- 84
2019-04-14 12:00:00 15.7 8 Sur 15 Sur 0 -- -- 90
2019-04-14 11:00:00 14.6 6 Sur 15 Sudoeste 0 -- -- 95
2019-04-14 10:00:00 13.6 2 Sur 8 Sudoeste 0 -- -- 98
2019-04-14 09:00:00 13 2 Oeste 6 Oeste 0 -- -- 98
2019-04-14 08:00:00 12.7 0 Calma 4 Noroeste 0 -- -- 98
2019-04-14 07:00:00 12.8 0 Calma 6 Sudoeste 0 -- -- 98
2019-04-14 06:00:00 12.7 0 Calma 8 Sudoeste 0 -- -- 98
2019-04-14 05:00:00 12.5 0 Calma 5 Sudoeste 0 -- -- 98
2019-04-14 04:00:00 12.4 2 Noroeste 4 Noroeste 0 -- -- 98
2019-04-14 03:00:00 12.4 0 Calma 4 Noroeste 0 -- -- 97
2019-04-14 02:00:00 12.5 0 Calma 8 Sudoeste 0.2 -- -- 96
2019-04-14 01:00:00 12.5 0 Calma 10 Sur 0 -- -- 96
2019-04-14 00:00:00 12.5 4 Sudoeste 9 Sudoeste 0 -- -- 95
2019-04-13 23:00:00 12.4 4 Sur 15 Sudoeste 0 -- -- 95
2019-04-13 22:00:00 12.5 4 Sudoeste 10 Sur 0 -- -- 94
2019-04-13 21:00:00 12.4 4 Sur 15 Sudoeste 0 -- -- 95
2019-04-13 20:00:00 12.5 4 Sur 15 Sur 0 -- -- 94
2019-04-13 19:00:00 13.2 7 Sudoeste 20 Sudoeste 0 -- -- 91
2019-04-13 18:00:00 13.1 2 Oeste 13 Sudoeste 0.2 -- -- 93
2019-04-13 17:00:00 12.7 2 Sudoeste 7 Oeste 0.4 -- -- 93
2019-04-13 16:00:00 12.8 3 Sudoeste 24 Sudoeste 0 -- -- 87
2019-04-13 15:00:00 14.1 9 Sur 31 Sudoeste 0 -- -- 66
2019-04-13 14:00:00 15.3 6 Sudoeste 24 Sudoeste 0 -- -- 57
2019-04-13 13:00:00 15.7 9 Sudoeste 21 Sudoeste 0 -- -- 43
2019-04-13 12:00:00 15.7 9 Sudoeste 19 Sudoeste 0 -- -- 45
2019-04-13 11:00:00 13.9 5 Sur 11 Sudoeste 0 -- -- 54
2019-04-13 10:00:00 10.7 0 Calma 5 Noroeste 0 -- -- 79
2019-04-13 09:00:00 8.4 3 Norte 6 Noroeste 0 -- -- 88
2019-04-13 08:00:00 7.5 0 Calma 4 Este 0 -- -- 91
2019-04-13 07:00:00 7.4 0 Calma 7 Noroeste 0 -- -- 91
2019-04-13 06:00:00 7.1 5 Noroeste 7 Noroeste 0 -- -- 92
2019-04-13 05:00:00 6.8 2 Nordeste 6 Noroeste 0 -- -- 93
2019-04-13 04:00:00 6.9 2 Noroeste 4 Noroeste 0 -- -- 91
2019-04-13 03:00:00 6.6 4 Noroeste 6 Noroeste 0 -- -- 91
2019-04-13 02:00:00 6.4 3 Noroeste 8 Norte 0 -- -- 90
2019-04-13 01:00:00 7.2 4 Noroeste 9 Nordeste 0 -- -- 87
2019-04-13 00:00:00 7.8 3 Norte 6 Noroeste 0 -- -- 85
2019-04-12 23:00:00 8.6 2 Norte 9 Nordeste 0 -- -- 81
2019-04-12 22:00:00 10.4 3 Nordeste 5 Nordeste 0 -- -- 71
2019-04-12 21:00:00 12.9 2 Norte 11 Noroeste 0 -- -- 61
2019-04-12 20:00:00 15.4 6 Noroeste 13 Oeste 0 -- -- 54
2019-04-12 19:00:00 16.7 7 Oeste 23 Oeste 0 -- -- 52
2019-04-12 18:00:00 16.6 12 Noroeste 23 Noroeste 0 -- -- 52
2019-04-12 17:00:00 16.6 12 Noroeste 24 Noroeste 0 -- -- 52
2019-04-12 16:00:00 16.8 12 Noroeste 24 Oeste 0 -- -- 52
2019-04-12 15:00:00 16.9 9 Oeste 23 Oeste 0 -- -- 49
2019-04-12 14:00:00 16.5 5 Oeste 19 Oeste 0 -- -- 43
2019-04-12 13:00:00 15.3 7 Oeste 18 Sudoeste 0 -- -- 43
2019-04-12 12:00:00 14.4 5 Sudoeste 13 Sudoeste 0 -- -- 52
2019-04-12 11:00:00 12.3 0 Calma 6 Norte 0 -- -- 65
2019-04-12 10:00:00 7.1 5 Norte 8 Noroeste 0 -- -- 90
2019-04-12 09:00:00 2.9 2 Norte 13 Este 0 -- -- 96
2019-04-12 08:00:00 1.2 4 Norte 11 Nordeste 0 -- -- 95
2019-04-12 07:00:00 3.7 9 Nordeste 14 Nordeste 0 -- -- 94
2019-04-12 06:00:00 1.8 3 Norte 9 Nordeste 0 -- -- 94
2019-04-12 05:00:00 3.1 5 Norte 17 Nordeste 0 -- -- 90
2019-04-12 04:00:00 4.1 6 Norte 14 Nordeste 0 -- -- 91
2019-04-12 03:00:00 4.4 6 Norte 15 Nordeste 0 -- -- 91
2019-04-12 02:00:00 5.6 6 Nordeste 17 Nordeste 0 -- -- 90
2019-04-12 01:00:00 6 6 Norte 11 Este 0 -- -- 91
2019-04-12 00:00:00 6.6 4 Nordeste 10 Nordeste 0 -- -- 91
2019-04-11 23:00:00 7.4 4 Norte 9 Nordeste 0 -- -- 85
2019-04-11 22:00:00 10.1 0 Calma 13 Sudoeste 0 -- -- 79
2019-04-11 21:00:00 13 4 Sudoeste 18 Noroeste 0 -- -- 67
2019-04-11 20:00:00 14.7 12 Noroeste 24 Noroeste 0 -- -- 60
2019-04-11 19:00:00 15.4 12 Noroeste 27 Noroeste 0 -- -- 58
2019-04-11 18:00:00 15.7 13 Noroeste 26 Noroeste 0 -- -- 54
2019-04-11 17:00:00 15.3 11 Noroeste 23 Oeste 0 -- -- 52
2019-04-11 16:00:00 15.3 10 Noroeste 22 Oeste 0 -- -- 54
2019-04-11 15:00:00 15.3 10 Noroeste 19 Noroeste 0 -- -- 56
2019-04-11 14:00:00 14.2 6 Noroeste 14 Noroeste 0 -- -- 57
2019-04-11 13:00:00 13.9 5 Oeste 15 Oeste 0 -- -- 62
2019-04-11 12:00:00 12.8 7 Este 15 Este 0 -- -- 57
2019-04-11 11:00:00 11.8 8 Este 14 Este 0 -- -- 67
2019-04-11 10:00:00 6.8 4 Nordeste 14 Nordeste 0 -- -- 95
2019-04-11 09:00:00 2.7 4 Norte 15 Nordeste 0 -- -- 98
2019-04-11 08:00:00 2.7 8 Nordeste 16 Nordeste 0 -- -- 99
2019-04-11 07:00:00 0.7 4 Noroeste 9 Norte 0 -- -- 98
2019-04-11 06:00:00 1.5 5 Norte 9 Noroeste 0 -- -- 98
2019-04-11 05:00:00 1.6 5 Noroeste 9 Noroeste 0 -- -- 97
2019-04-11 04:00:00 2.7 6 Norte 10 Norte 0 -- -- 96
2019-04-11 03:00:00 3 6 Norte 9 Norte 0 -- -- 96
2019-04-11 02:00:00 4.8 2 Norte 9 Este 0 -- -- 92
2019-04-11 01:00:00 6.5 7 Este 15 Este 0 -- -- 90
2019-04-11 00:00:00 5.9 0 Calma 6 Este 0 -- -- 92
2019-04-10 23:00:00 7.9 2 Nordeste 12 Este 0 -- -- 85
2019-04-10 22:00:00 8.6 2 Sudeste 7 Nordeste 0 -- -- 85
2019-04-10 21:00:00 11.1 2 Norte 15 Noroeste 0 -- -- 73
2019-04-10 20:00:00 12.6 6 Norte 15 Noroeste 0 -- -- 68
2019-04-10 19:00:00 13.8 10 Noroeste 24 Noroeste 0 -- -- 68
2019-04-10 18:00:00 13.6 9 Noroeste 25 Noroeste 0 -- -- 68
2019-04-10 17:00:00 13.4 10 Noroeste 27 Oeste 0 -- -- 74
2019-04-10 16:00:00 12.6 10 Noroeste 24 Oeste 0 -- -- 78
2019-04-10 15:00:00 11.5 8 Oeste 20 Oeste 0 -- -- 83
2019-04-10 14:00:00 11.3 9 Oeste 16 Noroeste 0.2 -- -- 86
2019-04-10 13:00:00 10.2 7 Noroeste 18 Noroeste 0 -- -- 90
2019-04-10 12:00:00 9 9 Noroeste 15 Noroeste 0 -- -- 96
2019-04-10 11:00:00 8.1 4 Sudeste 12 Sudeste 0.2 -- -- 99
2019-04-10 10:00:00 6.4 0 Calma -- -- 0 -- -- 99
2019-04-10 09:00:00 5.4 0 Calma -- -- 0 -- -- 97
2019-04-10 08:00:00 6.5 0 Calma 7 Noroeste 0 -- -- 96
2019-04-10 07:00:00 7.7 3 Oeste 9 Oeste 0 -- -- 97
2019-04-10 06:00:00 7.6 2 Sudeste 14 Nordeste 1 -- -- 96
2019-04-10 05:00:00 8 5 Noroeste 18 Noroeste 1.4 -- -- 96
2019-04-10 04:00:00 8.1 9 Noroeste 22 Noroeste 0.6 -- -- 96
2019-04-10 03:00:00 7.4 4 Noroeste 8 Oeste 1 -- -- 96
2019-04-10 02:00:00 7.4 5 Noroeste 16 Oeste 1 -- -- 95
2019-04-10 01:00:00 7.5 7 Noroeste 27 Noroeste 6 -- -- 95
2019-04-10 00:00:00 8.4 14 Noroeste 30 Oeste 8.4 -- -- 95
2019-04-09 23:00:00 8.6 13 Noroeste 38 Noroeste 2.6 -- -- 93
2019-04-09 22:00:00 8.7 15 Noroeste 41 Sudoeste 0.2 -- -- 93
2019-04-09 21:00:00 7.9 15 Noroeste 36 Oeste 4 -- -- 92
2019-04-09 20:00:00 8.7 18 Noroeste 35 Oeste 0.4 -- -- 93
2019-04-09 19:00:00 8.2 17 Noroeste 33 Oeste 3.6 -- -- 94
2019-04-09 18:00:00 9 11 Oeste 33 Oeste 1.2 -- -- 93
2019-04-09 17:00:00 9 11 Oeste 33 Oeste 1.2 -- -- 92
2019-04-09 16:00:00 9.1 17 Oeste 40 Sudoeste 1.4 -- -- 88
2019-04-09 15:00:00 11.2 18 Oeste 40 Sudoeste 0.2 -- -- 78
2019-04-09 14:00:00 10.6 12 Sudoeste 28 Sudoeste 0 -- -- 84
2019-04-09 13:00:00 9.1 8 Sudoeste 29 Sudoeste 0.2 -- -- 86
2019-04-09 12:00:00 7.6 9 Oeste 44 Noroeste 3.2 -- -- 93
2019-04-09 11:00:00 6.9 13 Oeste 36 Noroeste 3 -- -- 92
2019-04-09 10:00:00 6.4 4 Sudoeste 34 Oeste 3.2 -- -- 96
2019-04-09 09:00:00 6.2 4 Sur 9 Sur 0 -- -- 96
2019-04-09 08:00:00 6.6 3 Sudoeste 9 Norte 0 -- -- 96
2019-04-09 07:00:00 6.9 7 Noroeste 36 Noroeste 1.4 -- -- 96
2019-04-09 06:00:00 7.4 12 Sudoeste 28 Oeste 3.4 -- -- 98
2019-04-09 05:00:00 7.2 5 Sudoeste 18 Sur 1 -- -- 97
2019-04-09 04:00:00 7.1 7 Sur 21 Sudoeste 4.2 -- -- 97
2019-04-09 03:00:00 7.1 5 Sur 15 Sudoeste 0.6 -- -- 96
2019-04-09 02:00:00 7.2 8 Sur 29 Sudoeste 4.8 -- -- 96
2019-04-09 01:00:00 7.6 10 Sur 28 Sudoeste 1.8 -- -- 95
2019-04-09 00:00:00 7.6 7 Sur 19 Sudoeste 0 -- -- 94
2019-04-08 23:00:00 7.3 6 Sur 26 Sur 0.6 -- -- 93
2019-04-08 22:00:00 7.8 15 Sur 40 Sudoeste 1.2 -- -- 88
2019-04-08 21:00:00 9.4 11 Sudoeste 30 Sur 0 -- -- 85
2019-04-08 20:00:00 9.7 17 Sudoeste 32 Sudoeste 0 -- -- 81
2019-04-08 19:00:00 9.9 14 Sur 34 Sudoeste 0.4 -- -- 85
2019-04-08 18:00:00 10.8 10 Sudoeste 30 Sudoeste 0.6 -- -- 81
2019-04-08 17:00:00 12.5 13 Sudoeste 36 Sudoeste 0 -- -- 65
2019-04-08 16:00:00 12.2 11 Sudoeste 33 Sudoeste 0 -- -- 69
2019-04-08 15:00:00 11.5 16 Oeste 33 Sudoeste 0 -- -- 70
2019-04-08 14:00:00 11 16 Oeste 31 Oeste 0 -- -- 75
2019-04-08 13:00:00 10.5 12 Sudoeste 26 Sudoeste 0.2 -- -- 82
2019-04-08 12:00:00 9.6 10 Sudoeste 24 Sudoeste 0 -- -- 84
2019-04-08 11:00:00 9.1 5 Sudoeste 23 Sur 0.6 -- -- 92
2019-04-08 10:00:00 8.4 4 Sudoeste 11 Sudoeste 0 -- -- 94
2019-04-08 09:00:00 6.6 3 Sudoeste 10 Sudoeste 0 -- -- 96
2019-04-08 08:00:00 6.7 4 Sudoeste 26 Oeste 1 -- -- 96
2019-04-08 07:00:00 7.3 0 Calma 6 Oeste 0.2 -- -- 97
2019-04-08 06:00:00 7.5 3 Oeste 18 Oeste 0 -- -- 96
2019-04-08 05:00:00 8.2 7 Oeste 21 Oeste 0.2 -- -- 96
2019-04-08 04:00:00 8.9 4 Sudoeste 25 Oeste 0.2 -- -- 96
2019-04-08 03:00:00 9.2 12 Oeste 26 Oeste 0 -- -- 97
2019-04-08 02:00:00 9.4 12 Oeste 31 Oeste 0.8 -- -- 97
2019-04-08 01:00:00 9.6 9 Oeste 27 Oeste 0.6 -- -- 98
2019-04-08 00:00:00 10 20 Oeste 51 Sudoeste 1.2 -- -- 98
2019-04-07 23:00:00 11 14 Sudoeste 40 Sudoeste 1.6 -- -- 98
2019-04-07 22:00:00 10.5 9 Sur 27 Sudoeste 3.6 -- -- 98
2019-04-07 21:00:00 10.4 9 Sudoeste 24 Sudoeste 4.2 -- -- 98
2019-04-07 20:00:00 9.6 4 Sudoeste 13 Sudoeste 16.8 -- -- 97
2019-04-07 19:00:00 8.9 9 Sur 22 Sur 14.8 -- -- 96
2019-04-07 18:00:00 8.7 9 Sur 32 Sur 3.4 -- -- 95
2019-04-07 17:00:00 8.4 10 Sur 31 Sur 1.8 -- -- 92
2019-04-07 16:00:00 9.1 11 Sur 30 Sudeste 0.6 -- -- 87
2019-04-07 15:00:00 8.4 15 Sudeste 30 Sur 1.6 -- -- 90
2019-04-07 14:00:00 8.7 11 Sur 25 Sur 0.4 -- -- 87
2019-04-07 13:00:00 9.1 7 Sur 19 Sur 0 -- -- 86
2019-04-07 12:00:00 8.5 6 Sur 17 Sur 0 -- -- 96
2019-04-07 11:00:00 7.1 3 Sur 9 Sudeste 0 -- -- 100
2019-04-07 10:00:00 4.6 3 Noroeste 5 Noroeste 0 -- -- 100
2019-04-07 09:00:00 1.8 3 Noroeste 5 Noroeste 0 -- -- 100
2019-04-07 08:00:00 1.1 4 Noroeste 6 Noroeste 0 -- -- 99
2019-04-07 07:00:00 0.8 3 Noroeste 5 Noroeste 0 -- -- 99
2019-04-07 06:00:00 1.1 2 Noroeste 4 Noroeste 0 -- -- 99
2019-04-07 05:00:00 1.9 0 Calma 5 Norte 0 -- -- 98
2019-04-07 04:00:00 3 0 Calma 5 Noroeste 0 -- -- 98
2019-04-07 03:00:00 3.7 0 Calma 4 Nordeste 0 -- -- 98
2019-04-07 02:00:00 3.9 2 Noroeste 6 Norte 0 -- -- 98
2019-04-07 01:00:00 4.3 0 Calma 5 Este 0.2 -- -- 97
2019-04-07 00:00:00 4.3 4 Noroeste 11 Norte 1 -- -- 97
2019-04-06 23:00:00 4.5 2 Este 5 Norte 0 -- -- 95
2019-04-06 22:00:00 5.2 0 Calma 9 Sudoeste 0.2 -- -- 94
2019-04-06 21:00:00 5.9 6 Sudoeste 16 Oeste 2.6 -- -- 92
2019-04-06 20:00:00 6.9 6 Sudoeste 32 Oeste 0.2 -- -- 90
2019-04-06 19:00:00 7.9 7 Sudoeste 35 Noroeste 0 -- -- 82
2019-04-06 18:00:00 8.7 16 Noroeste 39 Oeste 0 -- -- 74
2019-04-06 17:00:00 9.5 13 Oeste 37 Noroeste 0.4 -- -- 78
2019-04-06 16:00:00 10.2 20 Noroeste 44 Noroeste 0 -- -- 65
2019-04-06 15:00:00 8 16 Noroeste 35 Noroeste 0.6 -- -- 87
2019-04-06 14:00:00 6.1 20 Noroeste 38 Noroeste 1 -- -- 91
2019-04-06 13:00:00 4.9 16 Noroeste 37 Oeste 5.2 -- -- 94
2019-04-06 12:00:00 5.8 13 Noroeste 35 Oeste 3 -- -- 92
2019-04-06 11:00:00 5.5 18 Noroeste 49 Noroeste 3.2 -- -- 93
2019-04-06 10:00:00 5.9 21 Noroeste 45 Oeste 1.4 -- -- 92
2019-04-06 09:00:00 5.7 11 Oeste 32 Noroeste 2.2 -- -- 94
2019-04-06 08:00:00 5.3 15 Oeste 43 Oeste 2.8 -- -- 94
2019-04-06 07:00:00 4.5 4 Oeste 28 Sudoeste 5.4 -- -- 96
2019-04-06 06:00:00 4.7 10 Sudoeste 33 Sudoeste 0.4 -- -- 95
2019-04-06 05:00:00 4.7 12 Oeste 39 Oeste 1.2 -- -- 95
2019-04-06 04:00:00 5.1 8 Sudoeste 33 Sudoeste 0.4 -- -- 96
2019-04-06 03:00:00 4.8 2 Sudoeste 14 Oeste 1.4 -- -- 96
2019-04-06 02:00:00 4.4 3 Sur 35 Noroeste 3 -- -- 94
2019-04-06 01:00:00 4.9 4 Sudoeste 18 Sur 1 -- -- 95
2019-04-06 00:00:00 5 8 Sudoeste 18 Sudoeste 2 -- -- 94
2019-04-05 23:00:00 5.8 5 Sudoeste 12 Sudoeste 0 -- -- 96
2019-04-05 22:00:00 5.9 3 Sudoeste 9 Sur 0.6 -- -- 95
2019-04-05 21:00:00 6.1 2 Sudoeste 11 Sudoeste 0.4 -- -- 92
2019-04-05 20:00:00 6.5 4 Sur 9 Sudoeste 0.2 -- -- 91
2019-04-05 19:00:00 6 7 Sudoeste 32 Noroeste 1.6 -- -- 90
2019-04-05 18:00:00 7.5 6 Sudoeste 21 Sudoeste 0 -- -- 83
2019-04-05 17:00:00 8 9 Oeste 22 Sudoeste 0.6 -- -- 84
2019-04-05 16:00:00 7.2 6 Sur 23 Sur 0 -- -- 89
2019-04-05 15:00:00 4.9 8 Sur 30 Sur 3.2 -- -- 95
2019-04-05 14:00:00 5.2 3 Sur 27 Sudoeste 2.8 -- -- 93
2019-04-05 13:00:00 6 10 Sur 29 Sudoeste 1.4 -- -- 89
2019-04-05 12:00:00 6 11 Sudoeste 27 Sur 0.4 -- -- 89
2019-04-05 11:00:00 5.6 10 Sudoeste 24 Sudoeste 0.8 -- -- 91
2019-04-05 10:00:00 4.1 3 Sur 11 Sudoeste 0.2 -- -- 98
2019-04-05 09:00:00 3 5 Sur 17 Sudoeste 1.2 -- -- 97
2019-04-05 08:00:00 2.8 2 Noroeste 10 Sudoeste 0 -- -- 96
2019-04-05 07:00:00 3 0 Calma 9 Noroeste 2 -- -- 96
2019-04-05 06:00:00 3.1 4 Sudoeste 10 Este 1 -- -- 97
2019-04-05 05:00:00 3 0 Calma 6 Sudoeste 0.6 -- -- 96
2019-04-05 04:00:00 3.5 4 Sudoeste 24 Noroeste 2.4 -- -- 95
2019-04-05 03:00:00 4.4 3 Sur 18 Noroeste 1 -- -- 96
2019-04-05 02:00:00 4.9 10 Oeste 23 Oeste 0.8 -- -- 96
2019-04-05 01:00:00 4.9 3 Sudoeste 8 Oeste 0.2 -- -- 97
2019-04-05 00:00:00 4.9 3 Sur 9 Sur 1.4 -- -- 97
2019-04-04 23:00:00 4.9 0 Calma 8 Sudoeste 2.6 -- -- 97
2019-04-04 22:00:00 5.1 0 Calma 5 Nordeste 1.6 -- -- 96
2019-04-04 21:00:00 5.5 2 Este 10 Sudoeste 4.6 -- -- 95
2019-04-04 20:00:00 5.9 3 Sudoeste 24 Sudoeste 7.6 -- -- 95
2019-04-04 19:00:00 6.4 13 Sur 33 Sudoeste 2 -- -- 95
2019-04-04 18:00:00 6.5 12 Sudoeste 31 Sudoeste 2.8 -- -- 95
2019-04-04 17:00:00 6.7 16 Sudoeste 38 Sudoeste 2 -- -- 94
2019-04-04 16:00:00 6.5 12 Sudoeste 34 Sudoeste 2 -- -- 93
2019-04-04 15:00:00 6.5 13 Sudoeste 31 Sudoeste 1.8 -- -- 92
2019-04-04 14:00:00 7 13 Sur 31 Sur 0.2 -- -- 87
2019-04-04 13:00:00 7.4 13 Sudoeste 29 Sudoeste 0 -- -- 79
2019-04-04 12:00:00 7.7 10 Sur 28 Sudoeste 0 -- -- 81
2019-04-04 11:00:00 5.7 8 Sur 20 Sudoeste 0 -- -- 90
2019-04-04 10:00:00 4.4 3 Norte 5 Noroeste 0 -- -- 98
2019-04-04 09:00:00 2.7 3 Norte 5 Noroeste 0.2 -- -- 98
2019-04-04 08:00:00 2.2 2 Noroeste 4 Noroeste 0 -- -- 96
2019-04-04 07:00:00 1.8 0 Calma 5 Noroeste 0 -- -- 96
2019-04-04 06:00:00 1.7 3 Noroeste 5 Noroeste 0 -- -- 96
2019-04-04 05:00:00 1 0 Calma 5 Noroeste 0 -- -- 95
2019-04-04 04:00:00 0.4 3 Noroeste 6 Noroeste 0 -- -- 94
2019-04-04 03:00:00 1 3 Norte 5 Noroeste 0 -- -- 92
2019-04-04 02:00:00 2 2 Noroeste 6 Noroeste 0 -- -- 90
2019-04-04 01:00:00 2.4 0 Calma 4 Noroeste 0 -- -- 88
2019-04-04 00:00:00 3.2 2 Este 6 Este 0 -- -- 85
2019-04-03 23:00:00 4.3 0 Calma 11 Norte 0 -- -- 79
2019-04-03 22:00:00 4.9 2 Nordeste 9 Norte 0 -- -- 73
2019-04-03 21:00:00 6.5 4 Norte 26 Noroeste 0 -- -- 67
2019-04-03 20:00:00 8.6 12 Norte 32 Noroeste 0 -- -- 57
2019-04-03 19:00:00 9.6 21 Noroeste 37 Noroeste 0 -- -- 52
2019-04-03 18:00:00 10.7 12 Norte 37 Noroeste 0 -- -- 51
2019-04-03 17:00:00 8.7 23 Noroeste 42 Noroeste 0 -- -- 57
2019-04-03 16:00:00 9.8 19 Noroeste 32 Noroeste 0 -- -- 60
2019-04-03 15:00:00 9.9 16 Norte 34 Noroeste 0 -- -- 62
2019-04-03 14:00:00 7.6 11 Noroeste 34 Noroeste 0.6 -- -- 79
2019-04-03 13:00:00 7.8 14 Noroeste 26 Noroeste 0.4 -- -- 79
2019-04-03 12:00:00 7.7 8 Norte 24 Noroeste 0 -- -- 73
2019-04-03 11:00:00 6.8 13 Noroeste 22 Noroeste 0 -- -- 78
2019-04-03 10:00:00 4.7 2 Norte 9 Noroeste 0 -- -- 96
2019-04-03 09:00:00 2.7 0 Calma 4 Noroeste 0.2 -- -- 97
2019-04-03 08:00:00 1.8 0 Calma 5 Noroeste 0 -- -- 94
2019-04-03 07:00:00 3.2 2 Nordeste 8 Nordeste 0 -- -- 91
2019-04-03 06:00:00 4.6 3 Nordeste 9 Norte 0 -- -- 90
2019-04-03 05:00:00 5.3 5 Norte 14 Norte 0 -- -- 90
2019-04-03 04:00:00 5 2 Nordeste 6 Nordeste 0 -- -- 85
2019-04-03 03:00:00 5.2 3 Nordeste 9 Este 0 -- -- 86
2019-04-03 02:00:00 6.4 2 Noroeste 16 Nordeste 0 -- -- 82
2019-04-03 01:00:00 7 10 Norte 25 Noroeste 0 -- -- 78
2019-04-03 00:00:00 7.2 6 Norte 19 Nordeste 0 -- -- 78
2019-04-02 23:00:00 7.7 6 Nordeste 20 Norte 0 -- -- 77
2019-04-02 22:00:00 8.5 4 Nordeste 19 Noroeste 0 -- -- 70
2019-04-02 21:00:00 10.2 6 Norte 23 Norte 0 -- -- 65
2019-04-02 20:00:00 12.5 12 Norte 27 Norte 0 -- -- 59
2019-04-02 19:00:00 14.4 9 Norte 24 Noroeste 0 -- -- 55
2019-04-02 18:00:00 15.3 8 Noroeste 25 Noroeste 0 -- -- 53
2019-04-02 17:00:00 16 12 Noroeste 30 Norte 0 -- -- 49
2019-04-02 16:00:00 16.2 12 Noroeste 24 Noroeste 0 -- -- 51
2019-04-02 15:00:00 15 8 Noroeste 24 Noroeste 0 -- -- 54
2019-04-02 14:00:00 14.7 13 Noroeste 26 Norte 0 -- -- 57
2019-04-02 13:00:00 13.4 11 Este 26 Este 0 -- -- 63
2019-04-02 12:00:00 11.6 13 Este 30 Este 0 -- -- 69
2019-04-02 11:00:00 10.8 12 Este 32 Este 0 -- -- 74
2019-04-02 10:00:00 8.8 16 Este 29 Este 0 -- -- 82
2019-04-02 09:00:00 6.1 12 Este 22 Este 0 -- -- 90
2019-04-02 08:00:00 5.6 8 Nordeste 21 Norte 0 -- -- 96
2019-04-02 07:00:00 2.2 0 Calma 8 Noroeste 0 -- -- 94
2019-04-02 06:00:00 2.5 2 Norte 8 Norte 0 -- -- 93
2019-04-02 05:00:00 3.5 2 Norte 10 Este 0 -- -- 91
2019-04-02 04:00:00 4.6 5 Nordeste 10 Nordeste 0 -- -- 91
2019-04-02 03:00:00 5 4 Norte 13 Nordeste 0 -- -- 91
2019-04-02 02:00:00 5.6 3 Norte 11 Nordeste 0 -- -- 93
2019-04-02 01:00:00 7 4 Norte 14 Nordeste 0 -- -- 91
2019-04-02 00:00:00 7.7 5 Norte 12 Norte 0 -- -- 90
2019-04-01 23:00:00 9 3 Norte 12 Nordeste 0 -- -- 88
2019-04-01 22:00:00 10.6 0 Calma 5 Nordeste 0 -- -- 85
2019-04-01 21:00:00 12.9 2 Noroeste 13 Oeste 0 -- -- 79
2019-04-01 20:00:00 14.9 8 Oeste 18 Sudoeste 0 -- -- 63
2019-04-01 19:00:00 16.1 10 Oeste 26 Sudoeste 0 -- -- 58
2019-04-01 18:00:00 17.9 12 Oeste 23 Oeste 0 -- -- 54
2019-04-01 17:00:00 17.1 10 Este 24 Este 0.2 -- -- 48
2019-04-01 16:00:00 15.1 15 Este 28 Este 0 -- -- 52
2019-04-01 15:00:00 17 10 Sudeste 26 Sudeste 0 -- -- 42
2019-04-01 14:00:00 18.5 11 Noroeste 24 Noroeste 0 -- -- 40
2019-04-01 13:00:00 18.7 9 Sudoeste 20 Sudoeste 0 -- -- 43
2019-04-01 12:00:00 17.8 8 Este 17 Este 0 -- -- 46
2019-04-01 11:00:00 16.3 12 Este 21 Este 0 -- -- 51
2019-04-01 10:00:00 13.6 5 Este 12 Este 0 -- -- 58
2019-04-01 09:00:00 10.3 3 Nordeste 10 Este 0 -- -- 68
2019-04-01 08:00:00 11.8 4 Sudeste 16 Nordeste 0 -- -- 59
2019-04-01 07:00:00 12.3 11 Nordeste 23 Este 0 -- -- 56
2019-04-01 06:00:00 12.6 10 Este 30 Este 0 -- -- 56
2019-04-01 05:00:00 12.4 13 Este 23 Este 0 -- -- 57
2019-04-01 04:00:00 12.3 3 Norte 23 Este -- -- -- 55
2019-04-01 03:00:00 13.1 12 Este 24 Este 0 -- -- 51
2019-04-01 02:00:00 13.1 12 Este 22 Este 0 -- -- 51
2019-04-01 01:00:00 13.3 15 Este 29 Este 0 -- -- 52
2019-04-01 00:00:00 13.6 16 Este 31 Este 0 -- -- 53
2019-03-31 23:00:00 14 12 Este 22 Este 0 -- -- 50
2019-03-31 22:00:00 13.5 8 Este 18 Este 0 -- -- 54
2019-03-31 21:00:00 14 3 Nordeste 15 Este 0 -- -- 54
2019-03-31 20:00:00 15.4 5 Nordeste 15 Nordeste 0 -- -- 52
2019-03-31 19:00:00 14.7 4 Nordeste 12 Nordeste 0 -- -- 63
2019-03-31 18:00:00 13.8 5 Este 27 Este 0.2 -- -- 67
2019-03-31 17:00:00 16.5 5 Nordeste 30 Noroeste 0 -- -- 50
2019-03-31 16:00:00 19.9 14 Noroeste 22 Oeste 0 -- -- 35
2019-03-31 15:00:00 19.8 4 Noroeste 13 Oeste 0 -- -- 30
2019-03-31 14:00:00 19.4 6 Oeste 15 Sudeste 0 -- -- 30
2019-03-31 13:00:00 18.3 3 Sur 12 Este 0 -- -- 39
2019-03-31 12:00:00 16.6 9 Este 33 Este 0 -- -- 42
2019-03-31 11:00:00 16.3 21 Este 33 Este 0 -- -- 43
2019-03-31 10:00:00 15 12 Este 26 Este 0 -- -- 47
2019-03-31 09:00:00 13.6 12 Este 25 Este 0 -- -- 49
2019-03-31 08:00:00 12.8 13 Este 30 Este 0 -- -- 52
2019-03-31 07:00:00 11.3 12 Este 21 Nordeste 0 -- -- 55
2019-03-31 06:00:00 7.7 7 Nordeste 15 Nordeste 0 -- -- 65
2019-03-31 05:00:00 6.4 5 Nordeste 14 Nordeste 0 -- -- 70
2019-03-31 03:00:00 7.5 6 Norte 14 Norte 0 -- -- 68
2019-03-31 01:00:00 8.6 5 Nordeste 19 Este 0 -- -- 64
2019-03-31 00:00:00 7.9 5 Nordeste 14 Nordeste 0 -- -- 68
2019-03-30 23:00:00 7.1 6 Nordeste 15 Nordeste 0 -- -- 70
2019-03-30 22:00:00 8.6 4 Nordeste 12 Nordeste 0 -- -- 64
2019-03-30 21:00:00 10.9 4 Nordeste 8 Nordeste 0 -- -- 56
2019-03-30 20:00:00 14.5 0 Calma 9 Norte 0 -- -- 46
2019-03-30 19:00:00 16.6 6 Noroeste 17 Noroeste 0 -- -- 38
2019-03-30 18:00:00 17.3 10 Noroeste 25 Noroeste 0 -- -- 38
2019-03-30 17:00:00 19 14 Noroeste 24 Noroeste 0 -- -- 34
2019-03-30 16:00:00 19.8 14 Noroeste 25 Noroeste 0 -- -- 31
2019-03-30 15:00:00 19.9 17 Noroeste 32 Noroeste 0 -- -- 27
2019-03-30 14:00:00 19.9 10 Sudoeste 21 Sudoeste 0 -- -- 28
2019-03-30 13:00:00 18.7 10 Oeste 19 Oeste 0 -- -- 28
2019-03-30 12:00:00 18 7 Oeste 14 Oeste 0 -- -- 33
2019-03-30 11:00:00 16.6 5 Noroeste 10 Noroeste 0 -- -- 37
2019-03-30 10:00:00 12.9 0 Calma 8 Noroeste 0 -- -- 54
2019-03-30 09:00:00 6.6 4 Noroeste 7 Noroeste 0 -- -- 72
2019-03-30 08:00:00 1.9 5 Norte 8 Noroeste 0 -- -- 87
2019-03-30 07:00:00 2.8 0 Calma 6 Nordeste 0 -- -- 81
2019-03-30 06:00:00 2.8 3 Norte 9 Norte 0 -- -- 81
2019-03-30 05:00:00 3.5 4 Norte 8 Nordeste 0 -- -- 79
2019-03-30 04:00:00 4 4 Norte 8 Nordeste 0 -- -- 79
2019-03-30 03:00:00 4.9 4 Norte 9 Nordeste 0 -- -- 78
2019-03-30 02:00:00 6.1 3 Norte 8 Este 0 -- -- 73
2019-03-30 01:00:00 5.9 4 Norte 9 Nordeste 0 -- -- 73
2019-03-30 00:00:00 6.3 3 Norte 12 Norte 0 -- -- 69
2019-03-29 23:00:00 6.8 4 Norte 10 Noroeste 0 -- -- 66
2019-03-29 22:00:00 7.6 5 Norte 9 Nordeste 0 -- -- 62
2019-03-29 21:00:00 9.8 3 Norte 6 Norte 0 -- -- 54
2019-03-29 20:00:00 13.6 0 Calma 7 Noroeste 0 -- -- 41
2019-03-29 19:00:00 16.4 6 Noroeste 19 Noroeste 0 -- -- 31
2019-03-29 18:00:00 17.4 12 Noroeste 26 Noroeste 0 -- -- 35
2019-03-29 17:00:00 19.3 8 Oeste 27 Sudoeste 0 -- -- 35
2019-03-29 16:00:00 20 14 Sudoeste 25 Sudoeste 0 -- -- 32
2019-03-29 15:00:00 20.7 14 Oeste 26 Noroeste 0 -- -- 33
2019-03-29 14:00:00 20.6 11 Oeste 23 Sudoeste 0 -- -- 28
2019-03-29 13:00:00 20.3 10 Oeste 21 Oeste 0 -- -- 30
2019-03-29 12:00:00 19.8 8 Sudoeste 20 Sudoeste 0 -- -- 30
2019-03-29 11:00:00 19 4 Noroeste 16 Este 0 -- -- 31
2019-03-29 10:00:00 17.8 11 Este 20 Este 0 -- -- 34
2019-03-29 09:00:00 13.8 4 Norte 24 Este 0 -- -- 42
2019-03-29 08:00:00 12 14 Este 30 Este 0 -- -- 46
2019-03-29 07:00:00 11.9 15 Este 27 Este 0 -- -- 48
2019-03-29 06:00:00 6.8 7 Nordeste 12 Nordeste 0 -- -- 69
2019-03-29 05:00:00 4.7 2 Norte 8 Noroeste 0 -- -- 83
2019-03-29 04:00:00 5 3 Noroeste 10 Noroeste 0 -- -- 84
2019-03-29 03:00:00 5.9 6 Noroeste 10 Noroeste 0 -- -- 80
2019-03-29 02:00:00 9.1 4 Este 10 Este 0 -- -- 69
2019-03-29 01:00:00 7.8 3 Noroeste 10 Nordeste 0 -- -- 75
2019-03-29 00:00:00 6.9 2 Norte 6 Noroeste 0 -- -- 80
2019-03-28 23:00:00 8.3 2 Norte 6 Noroeste 0 -- -- 74
2019-03-28 22:00:00 10.2 0 Calma 7 Norte 0 -- -- 65
2019-03-28 21:00:00 12.8 3 Norte 10 Nordeste 0 -- -- 57
2019-03-28 20:00:00 16.9 5 Noroeste 10 Noroeste 0 -- -- 40
2019-03-28 19:00:00 20 6 Noroeste 16 Noroeste 0 -- -- 35
2019-03-28 18:00:00 21.3 10 Oeste 23 Oeste 0 -- -- 34
2019-03-28 17:00:00 22.2 14 Oeste 25 Noroeste 0 -- -- 34
2019-03-28 16:00:00 23.2 7 Nordeste 26 Este 0 -- -- 28
2019-03-28 15:00:00 22.5 9 Este 24 Este 0 -- -- 22
2019-03-28 14:00:00 21.9 13 Este 26 Este 0 -- -- 24
2019-03-28 13:00:00 20.6 11 Sudeste 25 Este 0 -- -- 26
2019-03-28 12:00:00 19.7 12 Este 26 Este 0 -- -- 27
2019-03-28 11:00:00 17.1 10 Este 21 Este 0 -- -- 32
2019-03-28 10:00:00 15.2 14 Este 24 Este 0 -- -- 37
2019-03-28 09:00:00 13.8 10 Este 17 Este 0 -- -- 43
2019-03-28 08:00:00 11.5 14 Este 32 Este 0 -- -- 48
2019-03-28 07:00:00 11.4 11 Este 27 Este 0 -- -- 51
2019-03-28 06:00:00 12.5 18 Este 36 Este 0 -- -- 50
2019-03-28 05:00:00 13 23 Este 36 Este 0 -- -- 48
2019-03-28 04:00:00 13.7 20 Este 37 Este 0 -- -- 48
2019-03-28 03:00:00 13.1 9 Este 32 Este 0 -- -- 49
2019-03-28 02:00:00 13.7 17 Este 31 Este 0 -- -- 48
2019-03-28 01:00:00 13.7 9 Este 28 Este 0 -- -- 47
2019-03-28 00:00:00 14.5 8 Este 28 Este 0 -- -- 43
2019-03-27 23:00:00 12.4 6 Nordeste 19 Este 0 -- -- 47
2019-03-27 22:00:00 11.5 5 Norte 14 Nordeste 0 -- -- 50
2019-03-27 21:00:00 13.9 3 Nordeste 13 Este 0 -- -- 44
2019-03-27 20:00:00 18.1 4 Nordeste 18 Nordeste 0 -- -- 32
2019-03-27 19:00:00 20.7 10 Este 20 Este 0 -- -- 29
2019-03-27 18:00:00 22.6 13 Noroeste 22 Noroeste 0 -- -- 22
2019-03-27 17:00:00 23.2 10 Noroeste 17 Nordeste 0 -- -- 16
2019-03-27 16:00:00 23 7 Sudeste 20 Sudeste 0 -- -- 15
2019-03-27 15:00:00 22.3 6 Este 20 Este 0 -- -- 14
2019-03-27 14:00:00 21.1 10 Este 24 Este 0 -- -- 17
2019-03-27 13:00:00 19.5 14 Este 41 Sudeste 0 -- -- 16
2019-03-27 12:00:00 17.9 19 Este 35 Sudeste 0 -- -- 16
2019-03-27 11:00:00 17.2 9 Este 30 Sudeste 0 -- -- 15
2019-03-27 10:00:00 16.1 9 Este 29 Este 0 -- -- 16
2019-03-27 09:00:00 14.1 18 Este 33 Este 0 -- -- 16
2019-03-27 08:00:00 10.1 15 Este 33 Este 0 -- -- 23
2019-03-27 07:00:00 9.6 10 Este 33 Este 0 -- -- 28
2019-03-27 06:00:00 6.8 5 Norte 20 Nordeste 0 -- -- 40
2019-03-27 05:00:00 7.2 8 Nordeste 17 Nordeste 0 -- -- 40
2019-03-27 04:00:00 10.7 12 Este 23 Este 0 -- -- 33
2019-03-27 03:00:00 10.3 13 Este 23 Este 0 -- -- 30
2019-03-27 02:00:00 9.5 5 Nordeste 14 Nordeste 0 -- -- 40
2019-03-27 01:00:00 14 8 Este 18 Este 0 -- -- 25
2019-03-27 00:00:00 11.4 4 Nordeste 14 Oeste 0 -- -- 37
2019-03-26 23:00:00 9.5 2 Noroeste 8 Sudeste 0 -- -- 56
2019-03-26 22:00:00 13 0 Calma 20 Este 0 -- -- 44
2019-03-26 21:00:00 14.1 14 Este 24 Nordeste 0 -- -- 49
2019-03-26 20:00:00 16.6 10 Este 21 Este 0 -- -- 43
2019-03-26 19:00:00 20 6 Nordeste 29 Este 0 -- -- 38
2019-03-26 18:00:00 22.7 17 Sudeste 38 Sudeste 0 -- -- 15
2019-03-26 17:00:00 22.7 20 Este 43 Este 0 -- -- 16
2019-03-26 16:00:00 22.1 17 Sudeste 34 Sudeste 0 -- -- 20
2019-03-26 15:00:00 20.8 10 Sudeste 30 Sudeste 0 -- -- 22
2019-03-26 14:00:00 19.3 14 Este 36 Sudeste 0 -- -- 26
2019-03-26 13:00:00 17.2 8 Nordeste 41 Sudeste 0 -- -- 28
2019-03-26 12:00:00 15.3 17 Sudeste 39 Sudeste 0 -- -- 32
2019-03-26 11:00:00 13.3 10 Noroeste 22 Noroeste 0 -- -- 37
2019-03-26 10:00:00 11.6 5 Nordeste 22 Este 0 -- -- 43
2019-03-26 09:00:00 9.7 6 Este 14 Este 0 -- -- 50
2019-03-26 08:00:00 8.7 6 Este 35 Este 0 -- -- 52
2019-03-26 07:00:00 9.1 10 Este 41 Sudeste 0 -- -- 53
2019-03-26 06:00:00 9.9 25 Sudeste 42 Este 0 -- -- 52
2019-03-26 05:00:00 10.3 12 Sudeste 37 Este 0 -- -- 52
2019-03-26 04:00:00 11.1 19 Este 39 Este 0 -- -- 53
2019-03-26 03:00:00 11.9 19 Este 45 Este 0 -- -- 55
2019-03-26 02:00:00 12.5 24 Este 45 Este 0 -- -- 57
2019-03-26 01:00:00 12.5 23 Este 45 Este 0 -- -- 59
2019-03-26 00:00:00 12.8 19 Este 44 Este 0 -- -- 59
2019-03-25 23:00:00 13.6 22 Este 42 Este 0 -- -- 58
2019-03-25 22:00:00 14.4 25 Este 36 Este 0 -- -- 55
2019-03-25 21:00:00 13.5 19 Este 39 Este 0 -- -- 60
2019-03-25 20:00:00 15.2 14 Este 26 Este 0 -- -- 56
2019-03-25 19:00:00 18.4 8 Nordeste 22 Este 0 -- -- 45
2019-03-25 18:00:00 21.1 8 Nordeste 21 Norte 0 -- -- 36
2019-03-25 17:00:00 22.6 7 Norte 20 Nordeste 0 -- -- 31
2019-03-25 16:00:00 22.1 9 Sudeste 20 Sudeste 0 -- -- 38
2019-03-25 15:00:00 21.9 9 Este 23 Este 0 -- -- 38
2019-03-25 14:00:00 21.2 13 Este 26 Este 0 -- -- 35
2019-03-25 13:00:00 20.1 13 Este 28 Este 0 -- -- 38
2019-03-25 12:00:00 18.3 17 Este 37 Este 0 -- -- 41
2019-03-25 11:00:00 16.1 26 Este 40 Este 0 -- -- 47
2019-03-25 10:00:00 15.8 21 Este 37 Este 0 -- -- 49
2019-03-25 09:00:00 14.2 23 Este 38 Este 0 -- -- 52
2019-03-25 08:00:00 12.8 25 Este 42 Este 0 -- -- 57
2019-03-25 07:00:00 12.7 22 Este 39 Este 0 -- -- 59
2019-03-25 06:00:00 12.7 22 Este 41 Este 0 -- -- 59
2019-03-25 05:00:00 13 21 Este 41 Este 0 -- -- 59
2019-03-25 04:00:00 13.4 20 Este 35 Este 0 -- -- 58
2019-03-25 03:00:00 13.5 18 Este 36 Este 0 -- -- 57
2019-03-25 02:00:00 13.5 19 Este 37 Este 0 -- -- 57
2019-03-25 01:00:00 13.6 23 Este 47 Este 0 -- -- 57
2019-03-25 00:00:00 13.5 30 Este 45 Este 0 -- -- 57
2019-03-24 23:00:00 13.6 26 Este 43 Este 0 -- -- 57
2019-03-24 22:00:00 14.3 22 Este 42 Este 0 -- -- 56
2019-03-24 21:00:00 16.2 16 Este 32 Este 0 -- -- 51
2019-03-24 20:00:00 18.7 12 Este 28 Este 0 -- -- 41
2019-03-24 19:00:00 21.3 8 Nordeste 26 Nordeste 0 -- -- 33
2019-03-24 18:00:00 22.4 13 Este 27 Nordeste 0 -- -- 31
2019-03-24 17:00:00 23.3 10 Este 22 Este 0 -- -- 28
2019-03-24 16:00:00 24.6 5 Sudoeste 21 Sudeste 0 -- -- 24
2019-03-24 15:00:00 23.8 10 Sudeste 28 Este 0 -- -- 23
2019-03-24 14:00:00 23.5 9 Este 26 Este 0 -- -- 24
2019-03-24 13:00:00 22.8 8 Nordeste 22 Este 0 -- -- 28
2019-03-24 12:00:00 21 14 Este 28 Este 0 -- -- 33
2019-03-24 11:00:00 19.6 17 Este 36 Este 0 -- -- 35
2019-03-24 10:00:00 18.2 19 Este 38 Este 0 -- -- 36
2019-03-24 09:00:00 16.8 23 Este 35 Este 0 -- -- 37
2019-03-24 08:00:00 14.8 16 Este 33 Este 0 -- -- 41
2019-03-24 07:00:00 14.9 21 Este 33 Este 0 -- -- 41
2019-03-24 06:00:00 13.9 12 Este 25 Este 0 -- -- 46
2019-03-24 05:00:00 8.8 7 Nordeste 17 Nordeste 0 -- -- 65
2019-03-24 04:00:00 11.1 11 Nordeste 24 Este 0 -- -- 56
2019-03-24 03:00:00 12.4 12 Nordeste 29 Este 0 -- -- 51
2019-03-24 02:00:00 13.8 17 Este 32 Este 0 -- -- 48
2019-03-24 01:00:00 13.9 19 Este 28 Este 0 -- -- 49
2019-03-24 00:00:00 14.2 18 Este 31 Este 0 -- -- 50
2019-03-23 23:00:00 13.7 7 Nordeste 23 Noroeste 0 -- -- 53
2019-03-23 22:00:00 11.5 2 Sur 17 Nordeste 0 -- -- 63
2019-03-23 21:00:00 12.7 3 Este 9 Nordeste 0 -- -- 60
2019-03-23 20:00:00 15.6 0 Calma 12 Oeste 0 -- -- 51
2019-03-23 19:00:00 18.4 7 Oeste 20 Noroeste 0 -- -- 42
2019-03-23 18:00:00 19.6 11 Noroeste 22 Noroeste 0 -- -- 39
2019-03-23 17:00:00 20.5 15 Noroeste 27 Noroeste 0 -- -- 36
2019-03-23 16:00:00 21.1 11 Noroeste 24 Noroeste 0 -- -- 34
2019-03-23 15:00:00 20.9 14 Noroeste 26 Noroeste 0 -- -- 32
2019-03-23 14:00:00 20.7 11 Oeste 23 Sudoeste 0 -- -- 30
2019-03-23 13:00:00 20.4 8 Sudoeste 25 Sudoeste 0 -- -- 31
2019-03-23 12:00:00 19.1 8 Sudoeste 18 Sudoeste 0 -- -- 33
2019-03-23 11:00:00 17.9 5 Este 21 Este 0 -- -- 38
2019-03-23 10:00:00 15.4 14 Este 24 Este 0 -- -- 50
2019-03-23 09:00:00 10.3 8 Nordeste 19 Este 0 -- -- 65
2019-03-23 08:00:00 6.9 6 Norte 20 Este 0 -- -- 73
2019-03-23 07:00:00 8.4 8 Nordeste 21 Este 0 -- -- 68
2019-03-23 06:00:00 10.5 8 Este 24 Este 0 -- -- 59
2019-03-23 05:00:00 9.1 6 Este 23 Este 0 -- -- 61
2019-03-23 04:00:00 5 5 Norte 14 Nordeste 0 -- -- 77
2019-03-23 03:00:00 4.9 4 Norte 18 Nordeste 0 -- -- 80
2019-03-23 02:00:00 5.4 4 Nordeste 13 Este 0 -- -- 83
2019-03-23 01:00:00 6 6 Nordeste 13 Este 0 -- -- 82
2019-03-23 00:00:00 6.7 7 Nordeste 14 Nordeste 0 -- -- 77
2019-03-22 23:00:00 6.4 5 Norte 13 Norte 0 -- -- 72
2019-03-22 22:00:00 6.7 3 Noroeste 6 Noroeste 0 -- -- 74
2019-03-22 21:00:00 9.6 2 Noroeste 4 Noroeste 0 -- -- 64
2019-03-22 20:00:00 13.3 0 Calma 13 Oeste 0 -- -- 49
2019-03-22 19:00:00 15.8 8 Noroeste 19 Noroeste 0 -- -- 42
2019-03-22 18:00:00 17 14 Noroeste 26 Noroeste 0 -- -- 38
2019-03-22 17:00:00 18.1 15 Noroeste 25 Noroeste 0 -- -- 37
2019-03-22 16:00:00 18.3 15 Oeste 22 Noroeste 0 -- -- 36
2019-03-22 15:00:00 18.5 9 Noroeste 24 Noroeste 0 -- -- 39
2019-03-22 14:00:00 17.6 9 Oeste 20 Oeste 0 -- -- 36
2019-03-22 13:00:00 17 8 Oeste 21 Oeste 0 -- -- 37
2019-03-22 12:00:00 16.2 8 Oeste 17 Oeste 0 -- -- 42
2019-03-22 11:00:00 14.7 3 Oeste 9 Oeste 0 -- -- 51
2019-03-22 10:00:00 10.6 0 Calma 10 Nordeste 0 -- -- 71
2019-03-22 09:00:00 5.6 3 Norte 9 Nordeste 0 -- -- 87
2019-03-22 08:00:00 2.3 4 Noroeste 7 Noroeste 0 -- -- 93
2019-03-22 07:00:00 2.7 2 Sudeste 8 Noroeste 0 -- -- 95
2019-03-22 06:00:00 2.2 4 Norte 9 Nordeste 0 -- -- 92
2019-03-22 05:00:00 2.3 4 Norte 8 Noroeste 0 -- -- 93
2019-03-22 04:00:00 2.4 2 Noroeste 8 Norte 0 -- -- 92
2019-03-22 03:00:00 3.2 0 Calma 9 Norte 0 -- -- 90
2019-03-22 02:00:00 3.6 0 Calma 8 Nordeste 0 -- -- 89
2019-03-22 01:00:00 4.1 5 Noroeste 8 Norte 0 -- -- 87
2019-03-22 00:00:00 4.6 4 Norte 12 Norte 0 -- -- 85
2019-03-21 23:00:00 5.8 4 Noroeste 11 Nordeste 0 -- -- 82
2019-03-21 22:00:00 7.2 2 Noroeste 4 Noroeste 0 -- -- 77
2019-03-21 21:00:00 10.4 3 Oeste 9 Oeste 0 -- -- 63
2019-03-21 20:00:00 13 3 Oeste 13 Sudoeste 0 -- -- 54
2019-03-21 19:00:00 15 8 Noroeste 19 Noroeste 0 -- -- 51
2019-03-21 18:00:00 16.6 12 Noroeste 20 Noroeste 0 -- -- 49
2019-03-21 17:00:00 17.4 13 Noroeste 24 Oeste 0 -- -- 48
2019-03-21 16:00:00 17.9 14 Noroeste 28 Noroeste 0 -- -- 46
2019-03-21 15:00:00 17.8 9 Noroeste 20 Noroeste 0 -- -- 45
2019-03-21 14:00:00 17.2 12 Oeste 26 Oeste 0.2 -- -- 44
2019-03-21 13:00:00 16.6 8 Noroeste 14 Noroeste 0 -- -- 40
2019-03-21 12:00:00 15.4 8 Este 23 Este 0 -- -- 38
2019-03-21 11:00:00 13.8 16 Este 27 Este 0 -- -- 38
2019-03-21 10:00:00 12 19 Este 33 Este 0 -- -- 39
2019-03-21 09:00:00 9.9 22 Este 34 Este 0 -- -- 43
2019-03-21 08:00:00 8.8 22 Este 36 Este 0 -- -- 47
2019-03-21 07:00:00 9.1 17 Este 31 Este 0 -- -- 56
2019-03-21 06:00:00 9.4 20 Este 32 Este 0 -- -- 68
2019-03-21 05:00:00 9.7 15 Este 27 Este 0 -- -- 72
2019-03-21 04:00:00 8 5 Norte 24 Este 0 -- -- 80
2019-03-21 03:00:00 10.2 14 Este 30 Este 0 -- -- 73
2019-03-21 02:00:00 10.4 17 Este 28 Este 0 -- -- 73
2019-03-21 01:00:00 7.9 5 Norte 16 Nordeste 0 -- -- 83
2019-03-21 00:00:00 8.4 7 Nordeste 15 Este 0 -- -- 79
2019-03-20 23:00:00 9.5 9 Nordeste 14 Nordeste 0 -- -- 76
2019-03-20 22:00:00 9.2 6 Nordeste 13 Nordeste 0 -- -- 79
2019-03-20 21:00:00 10.5 5 Nordeste 13 Este 0 -- -- 77
2019-03-20 20:00:00 12.9 3 Sur 16 Oeste 0 -- -- 70
2019-03-20 19:00:00 15.8 7 Sudoeste 14 Noroeste 0 -- -- 61
2019-03-20 18:00:00 17.4 10 Oeste 19 Noroeste 0 -- -- 53
2019-03-20 17:00:00 17.7 13 Noroeste 23 Noroeste 0 -- -- 51
2019-03-20 16:00:00 18.1 12 Noroeste 23 Oeste 0 -- -- 49
2019-03-20 15:00:00 18 8 Sur 19 Sudeste 0 -- -- 43
2019-03-20 14:00:00 16.5 8 Este 21 Este 0 -- -- 46
2019-03-20 13:00:00 15.7 9 Este 22 Este 0 -- -- 49
2019-03-20 12:00:00 13.9 17 Este 27 Este 0 -- -- 54
2019-03-20 11:00:00 12.4 15 Este 33 Nordeste 0 -- -- 60
2019-03-20 10:00:00 11 21 Este 35 Este 0 -- -- 64
2019-03-20 09:00:00 9.6 18 Este 37 Este 0 -- -- 68
2019-03-20 08:00:00 8.4 24 Este 41 Este 0 -- -- 72
2019-03-20 07:00:00 8.4 16 Este 35 Este 0 -- -- 72
2019-03-20 06:00:00 8.5 16 Este 32 Este 0 -- -- 73
2019-03-20 05:00:00 8.4 19 Este 32 Este 0 -- -- 74
2019-03-20 04:00:00 7.9 19 Este 31 Este 0 -- -- 76
2019-03-20 03:00:00 8.1 11 Este 32 Este 0 -- -- 75
2019-03-20 02:00:00 8.6 18 Este 36 Este 0 -- -- 73
2019-03-20 01:00:00 9 15 Nordeste 35 Nordeste 0 -- -- 71
2019-03-20 00:00:00 8.8 21 Este 45 Este 0 -- -- 73
2019-03-19 23:00:00 8.5 21 Este 41 Este 0 -- -- 75
2019-03-19 22:00:00 9.1 7 Norte 29 Este 0 -- -- 73
2019-03-19 21:00:00 9.7 10 Nordeste 37 Nordeste 0 -- -- 71
2019-03-19 20:00:00 10.9 9 Nordeste 26 Este 0 -- -- 66
2019-03-19 19:00:00 12.9 8 Nordeste 28 Este 0 -- -- 59
2019-03-19 18:00:00 14.6 11 Este 27 Nordeste 0 -- -- 55
2019-03-19 17:00:00 15.8 8 Nordeste 23 Este 0 -- -- 51
2019-03-19 16:00:00 16 9 Norte 28 Este 0 -- -- 51
2019-03-19 15:00:00 15.7 11 Nordeste 27 Este 0 -- -- 49
2019-03-19 14:00:00 14.7 12 Este 27 Este 0 -- -- 51
2019-03-19 13:00:00 14.1 12 Este 30 Este 0 -- -- 51
2019-03-19 12:00:00 12.4 13 Nordeste 29 Este 0 -- -- 58
2019-03-19 11:00:00 11.2 14 Este 32 Este 0 -- -- 63
2019-03-19 10:00:00 10.3 9 Este 39 Este 0 -- -- 63
2019-03-19 09:00:00 8.1 13 Nordeste 27 Este 0 -- -- 70
2019-03-19 08:00:00 6.2 7 Norte 29 Nordeste 0 -- -- 75
2019-03-19 07:00:00 6.4 8 Este 30 Este 0 -- -- 74
2019-03-19 06:00:00 6.6 14 Este 38 Este 0 -- -- 73
2019-03-19 05:00:00 6.6 18 Este 38 Este 0 -- -- 72
2019-03-19 04:00:00 6.5 8 Norte 35 Este 0 -- -- 74
2019-03-19 03:00:00 6.8 14 Este 46 Este 0 -- -- 72
2019-03-19 02:00:00 6.8 26 Este 48 Este 0 -- -- 72
2019-03-19 01:00:00 6.3 14 Nordeste 46 Este 0 -- -- 76
2019-03-19 00:00:00 6.6 10 Nordeste 35 Nordeste 0 -- -- 72